sensor_id;sensor_type;location;lat;lon;timestamp;P1;durP1;ratioP1;P2;durP2;ratioP2
23866;SDS011;12114;53.404;-1.502;2022-12-18T00:00:56;39.20;;;22.20;;
23866;SDS011;12114;53.404;-1.502;2022-12-18T00:03:21;30.88;;;20.55;;
23866;SDS011;12114;53.404;-1.502;2022-12-18T00:05:48;34.38;;;20.73;;
23866;SDS011;12114;53.404;-1.502;2022-12-18T00:08:15;26.88;;;16.27;;
23866;SDS011;12114;53.404;-1.502;2022-12-18T00:10:41;25.90;;;15.45;;
23866;SDS011;12114;53.404;-1.502;2022-12-18T00:13:07;25.77;;;14.68;;
23866;SDS011;12114;53.404;-1.502;2022-12-18T00:15:34;25.42;;;13.63;;
23866;SDS011;12114;53.404;-1.502;2022-12-18T00:18:00;27.60;;;14.38;;
23866;SDS011;12114;53.404;-1.502;2022-12-18T00:20:26;33.47;;;17.50;;
23866;SDS011;12114;53.404;-1.502;2022-12-18T00:22:52;27.98;;;15.82;;
23866;SDS011;12114;53.404;-1.502;2022-12-18T00:25:18;23.20;;;12.77;;
23866;SDS011;12114;53.404;-1.502;2022-12-18T00:27:43;26.98;;;13.73;;
23866;SDS011;12114;53.404;-1.502;2022-12-18T00:30:09;22.30;;;12.10;;
23866;SDS011;12114;53.404;-1.502;2022-12-18T00:32:35;21.38;;;14.02;;
23866;SDS011;12114;53.404;-1.502;2022-12-18T00:35:01;22.88;;;14.20;;
23866;SDS011;12114;53.404;-1.502;2022-12-18T00:37:28;23.27;;;13.38;;
23866;SDS011;12114;53.404;-1.502;2022-12-18T00:39:55;25.00;;;14.02;;
23866;SDS011;12114;53.404;-1.502;2022-12-18T00:42:23;22.88;;;12.27;;
23866;SDS011;12114;53.404;-1.502;2022-12-18T00:45:08;21.30;;;11.73;;
23866;SDS011;12114;53.404;-1.502;2022-12-18T00:47:33;18.05;;;10.43;;
23866;SDS011;12114;53.404;-1.502;2022-12-18T00:49:59;16.67;;;9.93;;
23866;SDS011;12114;53.404;-1.502;2022-12-18T00:52:24;13.32;;;8.85;;
23866;SDS011;12114;53.404;-1.502;2022-12-18T00:54:49;15.43;;;8.77;;
23866;SDS011;12114;53.404;-1.502;2022-12-18T00:57:15;15.27;;;9.85;;
23866;SDS011;12114;53.404;-1.502;2022-12-18T00:59:41;14.25;;;9.02;;
23866;SDS011;12114;53.404;-1.502;2022-12-18T01:02:06;13.18;;;7.90;;
23866;SDS011;12114;53.404;-1.502;2022-12-18T01:04:32;14.60;;;8.75;;
23866;SDS011;12114;53.404;-1.502;2022-12-18T01:06:58;14.10;;;7.50;;
23866;SDS011;12114;53.404;-1.502;2022-12-18T01:09:23;14.57;;;8.25;;
23866;SDS011;12114;53.404;-1.502;2022-12-18T01:11:49;12.13;;;8.02;;
23866;SDS011;12114;53.404;-1.502;2022-12-18T01:14:15;13.73;;;7.78;;
23866;SDS011;12114;53.404;-1.502;2022-12-18T01:16:41;12.43;;;8.15;;
23866;SDS011;12114;53.404;-1.502;2022-12-18T01:19:06;13.20;;;7.45;;
23866;SDS011;12114;53.404;-1.502;2022-12-18T01:21:32;12.18;;;7.75;;
23866;SDS011;12114;53.404;-1.502;2022-12-18T01:23:58;12.10;;;7.90;;
23866;SDS011;12114;53.404;-1.502;2022-12-18T01:26:24;12.05;;;8.27;;
23866;SDS011;12114;53.404;-1.502;2022-12-18T01:28:50;14.05;;;7.68;;
23866;SDS011;12114;53.404;-1.502;2022-12-18T01:31:17;14.02;;;8.00;;
23866;SDS011;12114;53.404;-1.502;2022-12-18T01:33:46;11.80;;;8.05;;
23866;SDS011;12114;53.404;-1.502;2022-12-18T01:36:15;12.30;;;8.13;;
23866;SDS011;12114;53.404;-1.502;2022-12-18T01:38:45;17.13;;;9.98;;
23866;SDS011;12114;53.404;-1.502;2022-12-18T01:41:12;14.27;;;8.45;;
23866;SDS011;12114;53.404;-1.502;2022-12-18T01:46:07;13.32;;;8.73;;
23866;SDS011;12114;53.404;-1.502;2022-12-18T01:48:32;13.43;;;9.27;;
23866;SDS011;12114;53.404;-1.502;2022-12-18T01:50:58;16.73;;;8.73;;
23866;SDS011;12114;53.404;-1.502;2022-12-18T01:53:26;17.95;;;8.85;;
23866;SDS011;12114;53.404;-1.502;2022-12-18T01:55:53;14.02;;;9.45;;
23866;SDS011;12114;53.404;-1.502;2022-12-18T01:58:22;15.32;;;9.07;;
23866;SDS011;12114;53.404;-1.502;2022-12-18T02:00:55;20.07;;;9.67;;
23866;SDS011;12114;53.404;-1.502;2022-12-18T02:03:20;19.10;;;10.07;;
23866;SDS011;12114;53.404;-1.502;2022-12-18T02:05:52;21.33;;;10.00;;
23866;SDS011;12114;53.404;-1.502;2022-12-18T02:27:29;22.15;;;13.63;;
23866;SDS011;12114;53.404;-1.502;2022-12-18T02:29:59;22.73;;;13.13;;
23866;SDS011;12114;53.404;-1.502;2022-12-18T02:32:28;21.58;;;12.73;;
23866;SDS011;12114;53.404;-1.502;2022-12-18T02:34:58;21.10;;;13.93;;
23866;SDS011;12114;53.404;-1.502;2022-12-18T02:37:26;24.27;;;12.65;;
23866;SDS011;12114;53.404;-1.502;2022-12-18T02:39:53;23.05;;;13.63;;
23866;SDS011;12114;53.404;-1.502;2022-12-18T02:42:22;22.35;;;12.75;;
23866;SDS011;12114;53.404;-1.502;2022-12-18T02:44:49;21.70;;;14.05;;
23866;SDS011;12114;53.404;-1.502;2022-12-18T02:47:19;22.88;;;13.40;;
23866;SDS011;12114;53.404;-1.502;2022-12-18T02:50:09;20.05;;;13.57;;
23866;SDS011;12114;53.404;-1.502;2022-12-18T03:00:30;25.33;;;13.55;;
23866;SDS011;12114;53.404;-1.502;2022-12-18T03:02:59;28.80;;;13.65;;
23866;SDS011;12114;53.404;-1.502;2022-12-18T03:05:52;23.52;;;14.23;;
23866;SDS011;12114;53.404;-1.502;2022-12-18T03:08:24;24.10;;;13.73;;
23866;SDS011;12114;53.404;-1.502;2022-12-18T03:10:58;24.05;;;14.70;;
23866;SDS011;12114;53.404;-1.502;2022-12-18T03:13:34;26.90;;;14.82;;
23866;SDS011;12114;53.404;-1.502;2022-12-18T03:16:05;28.20;;;15.90;;
23866;SDS011;12114;53.404;-1.502;2022-12-18T03:21:00;24.42;;;14.98;;
23866;SDS011;12114;53.404;-1.502;2022-12-18T03:23:32;25.98;;;15.40;;
23866;SDS011;12114;53.404;-1.502;2022-12-18T03:26:05;27.70;;;16.63;;
23866;SDS011;12114;53.404;-1.502;2022-12-18T03:28:45;30.52;;;16.50;;
23866;SDS011;12114;53.404;-1.502;2022-12-18T03:31:15;29.50;;;18.10;;
23866;SDS011;12114;53.404;-1.502;2022-12-18T03:33:44;29.90;;;18.33;;
23866;SDS011;12114;53.404;-1.502;2022-12-18T03:36:16;29.95;;;17.90;;
23866;SDS011;12114;53.404;-1.502;2022-12-18T03:38:44;28.48;;;18.38;;
23866;SDS011;12114;53.404;-1.502;2022-12-18T03:52:18;31.30;;;19.83;;
23866;SDS011;12114;53.404;-1.502;2022-12-18T03:54:51;61.10;;;22.67;;
23866;SDS011;12114;53.404;-1.502;2022-12-18T03:57:21;30.17;;;18.92;;
23866;SDS011;12114;53.404;-1.502;2022-12-18T03:59:51;39.55;;;20.60;;
23866;SDS011;12114;53.404;-1.502;2022-12-18T04:02:23;30.83;;;19.00;;
23866;SDS011;12114;53.404;-1.502;2022-12-18T04:04:51;34.88;;;19.52;;
23866;SDS011;12114;53.404;-1.502;2022-12-18T04:07:19;32.40;;;19.08;;
23866;SDS011;12114;53.404;-1.502;2022-12-18T04:09:46;33.35;;;20.88;;
23866;SDS011;12114;53.404;-1.502;2022-12-18T04:12:14;32.75;;;20.17;;
23866;SDS011;12114;53.404;-1.502;2022-12-18T04:14:39;76.43;;;23.98;;
23866;SDS011;12114;53.404;-1.502;2022-12-18T04:17:05;42.33;;;21.77;;
23866;SDS011;12114;53.404;-1.502;2022-12-18T04:19:31;39.83;;;21.92;;
23866;SDS011;12114;53.404;-1.502;2022-12-18T04:21:56;35.92;;;21.98;;
23866;SDS011;12114;53.404;-1.502;2022-12-18T04:24:22;36.63;;;20.70;;
23866;SDS011;12114;53.404;-1.502;2022-12-18T04:26:47;39.80;;;20.55;;
23866;SDS011;12114;53.404;-1.502;2022-12-18T04:29:13;34.95;;;21.67;;
23866;SDS011;12114;53.404;-1.502;2022-12-18T04:31:38;30.92;;;20.38;;
23866;SDS011;12114;53.404;-1.502;2022-12-18T04:34:04;236.85;;;34.13;;
23866;SDS011;12114;53.404;-1.502;2022-12-18T04:36:29;37.85;;;20.98;;
23866;SDS011;12114;53.404;-1.502;2022-12-18T04:38:55;32.45;;;20.58;;
23866;SDS011;12114;53.404;-1.502;2022-12-18T04:41:21;32.72;;;20.88;;
23866;SDS011;12114;53.404;-1.502;2022-12-18T04:43:47;34.78;;;21.15;;
23866;SDS011;12114;53.404;-1.502;2022-12-18T04:46:12;37.28;;;22.58;;
23866;SDS011;12114;53.404;-1.502;2022-12-18T04:48:38;37.60;;;23.23;;
23866;SDS011;12114;53.404;-1.502;2022-12-18T04:51:04;33.03;;;21.60;;
23866;SDS011;12114;53.404;-1.502;2022-12-18T04:53:30;34.50;;;20.65;;
23866;SDS011;12114;53.404;-1.502;2022-12-18T04:56:06;36.70;;;21.60;;
23866;SDS011;12114;53.404;-1.502;2022-12-18T04:58:37;42.88;;;21.38;;
23866;SDS011;12114;53.404;-1.502;2022-12-18T05:01:05;34.47;;;20.23;;
23866;SDS011;12114;53.404;-1.502;2022-12-18T05:03:33;42.03;;;21.77;;
23866;SDS011;12114;53.404;-1.502;2022-12-18T05:06:00;41.08;;;23.10;;
23866;SDS011;12114;53.404;-1.502;2022-12-18T05:08:26;35.78;;;22.80;;
23866;SDS011;12114;53.404;-1.502;2022-12-18T05:11:01;37.63;;;21.95;;
23866;SDS011;12114;53.404;-1.502;2022-12-18T05:13:32;42.00;;;23.25;;
23866;SDS011;12114;53.404;-1.502;2022-12-18T05:15:58;39.95;;;22.92;;
23866;SDS011;12114;53.404;-1.502;2022-12-18T05:18:24;43.25;;;22.45;;
23866;SDS011;12114;53.404;-1.502;2022-12-18T05:20:50;38.53;;;22.48;;
23866;SDS011;12114;53.404;-1.502;2022-12-18T05:23:17;36.95;;;22.27;;
23866;SDS011;12114;53.404;-1.502;2022-12-18T05:28:19;40.92;;;23.48;;
23866;SDS011;12114;53.404;-1.502;2022-12-18T05:30:49;40.33;;;22.05;;
23866;SDS011;12114;53.404;-1.502;2022-12-18T05:33:16;41.67;;;22.77;;
23866;SDS011;12114;53.404;-1.502;2022-12-18T05:35:41;36.28;;;21.20;;
23866;SDS011;12114;53.404;-1.502;2022-12-18T05:38:07;37.90;;;21.30;;
23866;SDS011;12114;53.404;-1.502;2022-12-18T05:40:33;38.88;;;21.55;;
23866;SDS011;12114;53.404;-1.502;2022-12-18T05:42:59;37.05;;;21.38;;
23866;SDS011;12114;53.404;-1.502;2022-12-18T05:45:28;37.65;;;22.42;;
23866;SDS011;12114;53.404;-1.502;2022-12-18T05:47:53;41.97;;;22.23;;
23866;SDS011;12114;53.404;-1.502;2022-12-18T05:50:19;57.42;;;24.85;;
23866;SDS011;12114;53.404;-1.502;2022-12-18T05:52:44;54.20;;;25.58;;
23866;SDS011;12114;53.404;-1.502;2022-12-18T05:55:10;57.05;;;26.45;;
23866;SDS011;12114;53.404;-1.502;2022-12-18T05:57:35;55.08;;;26.83;;
23866;SDS011;12114;53.404;-1.502;2022-12-18T06:00:01;56.30;;;27.52;;
23866;SDS011;12114;53.404;-1.502;2022-12-18T06:02:28;58.80;;;28.08;;
23866;SDS011;12114;53.404;-1.502;2022-12-18T06:04:54;52.28;;;27.33;;
23866;SDS011;12114;53.404;-1.502;2022-12-18T06:07:20;65.65;;;30.48;;
23866;SDS011;12114;53.404;-1.502;2022-12-18T06:09:45;61.45;;;28.60;;
23866;SDS011;12114;53.404;-1.502;2022-12-18T06:12:10;65.35;;;30.50;;
23866;SDS011;12114;53.404;-1.502;2022-12-18T06:14:36;72.68;;;31.67;;
23866;SDS011;12114;53.404;-1.502;2022-12-18T06:17:02;71.13;;;30.73;;
23866;SDS011;12114;53.404;-1.502;2022-12-18T06:19:27;61.50;;;27.17;;
23866;SDS011;12114;53.404;-1.502;2022-12-18T06:21:53;65.28;;;32.60;;
23866;SDS011;12114;53.404;-1.502;2022-12-18T06:24:18;71.60;;;33.17;;
23866;SDS011;12114;53.404;-1.502;2022-12-18T06:26:44;69.32;;;32.97;;
23866;SDS011;12114;53.404;-1.502;2022-12-18T06:29:10;71.60;;;32.38;;
23866;SDS011;12114;53.404;-1.502;2022-12-18T06:31:36;77.07;;;33.33;;
23866;SDS011;12114;53.404;-1.502;2022-12-18T06:34:02;72.35;;;33.28;;
23866;SDS011;12114;53.404;-1.502;2022-12-18T06:36:29;66.55;;;32.83;;
23866;SDS011;12114;53.404;-1.502;2022-12-18T06:38:54;70.85;;;34.90;;
23866;SDS011;12114;53.404;-1.502;2022-12-18T06:41:21;74.07;;;35.65;;
23866;SDS011;12114;53.404;-1.502;2022-12-18T06:43:47;73.65;;;35.38;;
23866;SDS011;12114;53.404;-1.502;2022-12-18T06:46:13;80.25;;;36.17;;
23866;SDS011;12114;53.404;-1.502;2022-12-18T06:48:38;72.95;;;35.38;;
23866;SDS011;12114;53.404;-1.502;2022-12-18T06:51:04;84.13;;;37.53;;
23866;SDS011;12114;53.404;-1.502;2022-12-18T06:53:31;74.53;;;35.90;;
23866;SDS011;12114;53.404;-1.502;2022-12-18T06:56:04;80.45;;;34.55;;
23866;SDS011;12114;53.404;-1.502;2022-12-18T06:58:31;72.55;;;35.22;;
23866;SDS011;12114;53.404;-1.502;2022-12-18T07:01:01;74.75;;;36.53;;
23866;SDS011;12114;53.404;-1.502;2022-12-18T07:03:28;76.63;;;35.17;;
23866;SDS011;12114;53.404;-1.502;2022-12-18T07:05:53;71.15;;;34.88;;
23866;SDS011;12114;53.404;-1.502;2022-12-18T07:08:19;67.07;;;32.97;;
23866;SDS011;12114;53.404;-1.502;2022-12-18T07:10:44;68.90;;;33.28;;
23866;SDS011;12114;53.404;-1.502;2022-12-18T07:13:10;75.38;;;35.10;;
23866;SDS011;12114;53.404;-1.502;2022-12-18T07:15:35;68.60;;;33.10;;
23866;SDS011;12114;53.404;-1.502;2022-12-18T07:18:01;70.22;;;34.97;;
23866;SDS011;12114;53.404;-1.502;2022-12-18T07:20:27;76.68;;;36.67;;
23866;SDS011;12114;53.404;-1.502;2022-12-18T07:22:52;74.68;;;34.95;;
23866;SDS011;12114;53.404;-1.502;2022-12-18T07:25:18;76.47;;;37.70;;
23866;SDS011;12114;53.404;-1.502;2022-12-18T07:27:43;76.07;;;37.05;;
23866;SDS011;12114;53.404;-1.502;2022-12-18T07:30:09;80.13;;;38.13;;
23866;SDS011;12114;53.404;-1.502;2022-12-18T07:32:35;76.03;;;37.05;;
23866;SDS011;12114;53.404;-1.502;2022-12-18T07:35:02;83.90;;;38.70;;
23866;SDS011;12114;53.404;-1.502;2022-12-18T07:37:28;76.18;;;35.65;;
23866;SDS011;12114;53.404;-1.502;2022-12-18T07:39:54;82.30;;;38.63;;
23866;SDS011;12114;53.404;-1.502;2022-12-18T07:42:20;80.85;;;37.03;;
23866;SDS011;12114;53.404;-1.502;2022-12-18T07:44:58;76.00;;;37.75;;
23866;SDS011;12114;53.404;-1.502;2022-12-18T07:47:25;79.07;;;36.85;;
23866;SDS011;12114;53.404;-1.502;2022-12-18T07:49:50;76.03;;;37.17;;
23866;SDS011;12114;53.404;-1.502;2022-12-18T07:52:16;76.95;;;36.80;;
23866;SDS011;12114;53.404;-1.502;2022-12-18T07:54:41;88.38;;;39.00;;
23866;SDS011;12114;53.404;-1.502;2022-12-18T07:57:07;79.93;;;36.67;;
23866;SDS011;12114;53.404;-1.502;2022-12-18T07:59:33;82.32;;;37.65;;
23866;SDS011;12114;53.404;-1.502;2022-12-18T08:01:59;86.05;;;38.85;;
23866;SDS011;12114;53.404;-1.502;2022-12-18T08:04:25;84.45;;;37.83;;
23866;SDS011;12114;53.404;-1.502;2022-12-18T08:06:51;83.90;;;38.40;;
23866;SDS011;12114;53.404;-1.502;2022-12-18T08:09:17;84.60;;;38.35;;
23866;SDS011;12114;53.404;-1.502;2022-12-18T08:11:43;81.90;;;38.20;;
23866;SDS011;12114;53.404;-1.502;2022-12-18T08:14:09;80.47;;;37.38;;
23866;SDS011;12114;53.404;-1.502;2022-12-18T08:16:35;84.28;;;37.15;;
23866;SDS011;12114;53.404;-1.502;2022-12-18T08:19:00;80.13;;;36.92;;
23866;SDS011;12114;53.404;-1.502;2022-12-18T08:21:27;76.63;;;35.72;;
23866;SDS011;12114;53.404;-1.502;2022-12-18T08:23:54;73.85;;;35.05;;
23866;SDS011;12114;53.404;-1.502;2022-12-18T08:26:22;79.63;;;35.92;;
23866;SDS011;12114;53.404;-1.502;2022-12-18T08:28:48;84.38;;;35.40;;
23866;SDS011;12114;53.404;-1.502;2022-12-18T08:31:14;78.57;;;36.13;;
23866;SDS011;12114;53.404;-1.502;2022-12-18T08:33:40;76.85;;;34.42;;
23866;SDS011;12114;53.404;-1.502;2022-12-18T08:36:08;77.40;;;33.67;;
23866;SDS011;12114;53.404;-1.502;2022-12-18T08:38:34;73.68;;;34.45;;
23866;SDS011;12114;53.404;-1.502;2022-12-18T08:41:00;75.65;;;34.75;;
23866;SDS011;12114;53.404;-1.502;2022-12-18T08:43:27;73.15;;;33.25;;
23866;SDS011;12114;53.404;-1.502;2022-12-18T08:46:12;77.15;;;33.75;;
23866;SDS011;12114;53.404;-1.502;2022-12-18T08:48:40;73.65;;;32.20;;
23866;SDS011;12114;53.404;-1.502;2022-12-18T08:51:06;70.10;;;32.45;;
23866;SDS011;12114;53.404;-1.502;2022-12-18T08:53:32;69.07;;;32.60;;
23866;SDS011;12114;53.404;-1.502;2022-12-18T08:55:57;72.40;;;33.00;;
23866;SDS011;12114;53.404;-1.502;2022-12-18T08:58:23;73.88;;;33.10;;
23866;SDS011;12114;53.404;-1.502;2022-12-18T09:00:48;73.32;;;32.08;;
23866;SDS011;12114;53.404;-1.502;2022-12-18T09:03:14;68.00;;;30.88;;
23866;SDS011;12114;53.404;-1.502;2022-12-18T09:05:41;70.97;;;31.38;;
23866;SDS011;12114;53.404;-1.502;2022-12-18T09:08:07;70.18;;;32.88;;
23866;SDS011;12114;53.404;-1.502;2022-12-18T09:10:34;66.50;;;30.20;;
23866;SDS011;12114;53.404;-1.502;2022-12-18T09:13:05;73.57;;;33.08;;
23866;SDS011;12114;53.404;-1.502;2022-12-18T09:15:32;73.07;;;31.38;;
23866;SDS011;12114;53.404;-1.502;2022-12-18T09:17:58;70.93;;;29.73;;
23866;SDS011;12114;53.404;-1.502;2022-12-18T09:20:23;67.13;;;30.30;;
23866;SDS011;12114;53.404;-1.502;2022-12-18T09:22:49;67.68;;;29.23;;
23866;SDS011;12114;53.404;-1.502;2022-12-18T09:25:15;72.40;;;31.77;;
23866;SDS011;12114;53.404;-1.502;2022-12-18T09:27:40;72.75;;;31.85;;
23866;SDS011;12114;53.404;-1.502;2022-12-18T09:30:06;65.28;;;29.63;;
23866;SDS011;12114;53.404;-1.502;2022-12-18T09:32:32;67.28;;;30.65;;
23866;SDS011;12114;53.404;-1.502;2022-12-18T09:34:57;69.50;;;29.80;;
23866;SDS011;12114;53.404;-1.502;2022-12-18T09:37:23;65.18;;;30.17;;
23866;SDS011;12114;53.404;-1.502;2022-12-18T09:39:49;66.00;;;28.92;;
23866;SDS011;12114;53.404;-1.502;2022-12-18T09:42:21;75.82;;;31.85;;
23866;SDS011;12114;53.404;-1.502;2022-12-18T09:44:49;60.92;;;28.90;;
23866;SDS011;12114;53.404;-1.502;2022-12-18T09:47:33;67.43;;;29.15;;
23866;SDS011;12114;53.404;-1.502;2022-12-18T09:50:04;62.08;;;28.75;;
23866;SDS011;12114;53.404;-1.502;2022-12-18T09:52:41;68.18;;;27.95;;
23866;SDS011;12114;53.404;-1.502;2022-12-18T09:57:51;47.22;;;21.08;;
23866;SDS011;12114;53.404;-1.502;2022-12-18T10:00:24;61.33;;;28.42;;
23866;SDS011;12114;53.404;-1.502;2022-12-18T10:02:57;57.45;;;27.00;;
23866;SDS011;12114;53.404;-1.502;2022-12-18T10:08:25;62.85;;;27.80;;
23866;SDS011;12114;53.404;-1.502;2022-12-18T10:11:01;60.38;;;27.77;;
23866;SDS011;12114;53.404;-1.502;2022-12-18T10:13:41;63.55;;;27.58;;
23866;SDS011;12114;53.404;-1.502;2022-12-18T10:16:29;59.00;;;28.25;;
23866;SDS011;12114;53.404;-1.502;2022-12-18T10:27:35;55.33;;;25.92;;
23866;SDS011;12114;53.404;-1.502;2022-12-18T10:30:00;53.05;;;24.38;;
23866;SDS011;12114;53.404;-1.502;2022-12-18T10:32:29;54.88;;;25.35;;
23866;SDS011;12114;53.404;-1.502;2022-12-18T10:34:57;49.00;;;24.33;;
23866;SDS011;12114;53.404;-1.502;2022-12-18T10:37:24;49.58;;;23.63;;
23866;SDS011;12114;53.404;-1.502;2022-12-18T10:42:32;53.15;;;25.38;;
23866;SDS011;12114;53.404;-1.502;2022-12-18T10:45:02;46.33;;;23.23;;
23866;SDS011;12114;53.404;-1.502;2022-12-18T10:47:41;46.53;;;23.08;;
23866;SDS011;12114;53.404;-1.502;2022-12-18T10:50:19;44.50;;;22.25;;
23866;SDS011;12114;53.404;-1.502;2022-12-18T10:52:55;49.92;;;23.40;;
23866;SDS011;12114;53.404;-1.502;2022-12-18T10:55:23;45.33;;;22.55;;
23866;SDS011;12114;53.404;-1.502;2022-12-18T11:03:32;46.35;;;23.00;;
23866;SDS011;12114;53.404;-1.502;2022-12-18T11:06:06;45.22;;;22.63;;
23866;SDS011;12114;53.404;-1.502;2022-12-18T11:08:34;49.35;;;22.90;;
23866;SDS011;12114;53.404;-1.502;2022-12-18T11:11:00;45.22;;;23.38;;
23866;SDS011;12114;53.404;-1.502;2022-12-18T11:13:27;50.85;;;24.02;;
23866;SDS011;12114;53.404;-1.502;2022-12-18T11:15:57;45.58;;;22.85;;
23866;SDS011;12114;53.404;-1.502;2022-12-18T11:18:28;49.30;;;22.70;;
23866;SDS011;12114;53.404;-1.502;2022-12-18T11:20:58;42.65;;;21.50;;
23866;SDS011;12114;53.404;-1.502;2022-12-18T11:23:35;49.95;;;22.58;;
23866;SDS011;12114;53.404;-1.502;2022-12-18T11:26:08;43.33;;;22.48;;
23866;SDS011;12114;53.404;-1.502;2022-12-18T11:28:35;47.08;;;22.50;;
23866;SDS011;12114;53.404;-1.502;2022-12-18T11:31:28;43.97;;;21.83;;
23866;SDS011;12114;53.404;-1.502;2022-12-18T11:33:56;47.17;;;22.88;;
23866;SDS011;12114;53.404;-1.502;2022-12-18T11:36:38;46.45;;;23.23;;
23866;SDS011;12114;53.404;-1.502;2022-12-18T11:39:11;46.80;;;22.35;;
23866;SDS011;12114;53.404;-1.502;2022-12-18T11:42:00;45.90;;;22.92;;
23866;SDS011;12114;53.404;-1.502;2022-12-18T11:44:52;48.08;;;22.95;;
23866;SDS011;12114;53.404;-1.502;2022-12-18T11:47:40;46.70;;;23.73;;
23866;SDS011;12114;53.404;-1.502;2022-12-18T11:51:13;48.35;;;23.33;;
23866;SDS011;12114;53.404;-1.502;2022-12-18T11:53:15;47.47;;;22.63;;
23866;SDS011;12114;53.404;-1.502;2022-12-18T11:58:42;46.67;;;22.25;;
23866;SDS011;12114;53.404;-1.502;2022-12-18T12:17:25;48.03;;;24.83;;
23866;SDS011;12114;53.404;-1.502;2022-12-18T12:19:58;46.40;;;24.02;;
23866;SDS011;12114;53.404;-1.502;2022-12-18T12:25:46;44.22;;;25.13;;
23866;SDS011;12114;53.404;-1.502;2022-12-18T12:39:50;45.60;;;23.65;;
23866;SDS011;12114;53.404;-1.502;2022-12-18T12:42:27;41.33;;;22.55;;
23866;SDS011;12114;53.404;-1.502;2022-12-18T12:45:18;46.00;;;22.38;;
23866;SDS011;12114;53.404;-1.502;2022-12-18T12:47:53;47.28;;;24.10;;
23866;SDS011;12114;53.404;-1.502;2022-12-18T12:50:20;43.88;;;22.58;;
23866;SDS011;12114;53.404;-1.502;2022-12-18T12:53:15;46.67;;;23.13;;
23866;SDS011;12114;53.404;-1.502;2022-12-18T12:56:01;40.72;;;21.85;;
23866;SDS011;12114;53.404;-1.502;2022-12-18T12:58:36;43.72;;;24.30;;
23866;SDS011;12114;53.404;-1.502;2022-12-18T13:01:32;44.15;;;24.00;;
23866;SDS011;12114;53.404;-1.502;2022-12-18T13:06:47;48.25;;;25.77;;
23866;SDS011;12114;53.404;-1.502;2022-12-18T13:09:14;48.10;;;23.80;;
23866;SDS011;12114;53.404;-1.502;2022-12-18T13:11:46;46.90;;;23.25;;
23866;SDS011;12114;53.404;-1.502;2022-12-18T13:14:39;48.30;;;24.58;;
23866;SDS011;12114;53.404;-1.502;2022-12-18T13:24:54;49.13;;;23.38;;
23866;SDS011;12114;53.404;-1.502;2022-12-18T13:35:50;50.83;;;27.65;;
23866;SDS011;12114;53.404;-1.502;2022-12-18T13:38:22;50.30;;;26.67;;
23866;SDS011;12114;53.404;-1.502;2022-12-18T13:46:21;53.25;;;26.88;;
23866;SDS011;12114;53.404;-1.502;2022-12-18T13:51:39;47.75;;;25.60;;
23866;SDS011;12114;53.404;-1.502;2022-12-18T13:54:18;52.80;;;26.65;;
23866;SDS011;12114;53.404;-1.502;2022-12-18T13:56:46;56.40;;;27.60;;
23866;SDS011;12114;53.404;-1.502;2022-12-18T13:59:23;58.58;;;28.02;;
23866;SDS011;12114;53.404;-1.502;2022-12-18T14:04:19;57.15;;;27.00;;
23866;SDS011;12114;53.404;-1.502;2022-12-18T14:06:46;54.58;;;25.35;;
23866;SDS011;12114;53.404;-1.502;2022-12-18T14:09:14;52.72;;;27.17;;
23866;SDS011;12114;53.404;-1.502;2022-12-18T14:11:46;54.50;;;25.98;;
23866;SDS011;12114;53.404;-1.502;2022-12-18T14:14:15;51.65;;;26.30;;
23866;SDS011;12114;53.404;-1.502;2022-12-18T14:16:42;52.83;;;27.38;;
23866;SDS011;12114;53.404;-1.502;2022-12-18T14:19:09;53.88;;;26.65;;
23866;SDS011;12114;53.404;-1.502;2022-12-18T14:21:39;62.17;;;28.73;;
23866;SDS011;12114;53.404;-1.502;2022-12-18T14:26:33;51.55;;;27.20;;
23866;SDS011;12114;53.404;-1.502;2022-12-18T14:29:00;55.20;;;26.10;;
23866;SDS011;12114;53.404;-1.502;2022-12-18T14:31:43;56.55;;;27.13;;
23866;SDS011;12114;53.404;-1.502;2022-12-18T14:34:15;53.17;;;27.70;;
23866;SDS011;12114;53.404;-1.502;2022-12-18T14:36:41;59.20;;;26.38;;
23866;SDS011;12114;53.404;-1.502;2022-12-18T14:39:17;62.10;;;28.55;;
23866;SDS011;12114;53.404;-1.502;2022-12-18T14:41:43;56.00;;;27.25;;
23866;SDS011;12114;53.404;-1.502;2022-12-18T14:44:10;54.85;;;27.25;;
23866;SDS011;12114;53.404;-1.502;2022-12-18T14:46:38;57.30;;;28.30;;
23866;SDS011;12114;53.404;-1.502;2022-12-18T14:51:55;53.20;;;26.98;;
23866;SDS011;12114;53.404;-1.502;2022-12-18T14:54:25;57.97;;;29.08;;
23866;SDS011;12114;53.404;-1.502;2022-12-18T14:59:30;60.67;;;31.40;;
23866;SDS011;12114;53.404;-1.502;2022-12-18T15:04:43;63.55;;;30.77;;
23866;SDS011;12114;53.404;-1.502;2022-12-18T15:12:45;61.03;;;30.45;;
23866;SDS011;12114;53.404;-1.502;2022-12-18T15:20:39;64.90;;;33.70;;
23866;SDS011;12114;53.404;-1.502;2022-12-18T15:23:11;61.00;;;29.92;;
23866;SDS011;12114;53.404;-1.502;2022-12-18T15:25:42;69.63;;;34.97;;
23866;SDS011;12114;53.404;-1.502;2022-12-18T15:28:24;69.13;;;33.35;;
23866;SDS011;12114;53.404;-1.502;2022-12-18T15:30:59;73.13;;;34.72;;
23866;SDS011;12114;53.404;-1.502;2022-12-18T15:33:35;66.43;;;33.47;;
23866;SDS011;12114;53.404;-1.502;2022-12-18T15:36:04;57.65;;;29.27;;
23866;SDS011;12114;53.404;-1.502;2022-12-18T15:38:33;85.68;;;49.60;;
23866;SDS011;12114;53.404;-1.502;2022-12-18T15:40:59;68.13;;;32.90;;
23866;SDS011;12114;53.404;-1.502;2022-12-18T15:43:26;63.15;;;33.05;;
23866;SDS011;12114;53.404;-1.502;2022-12-18T15:48:33;60.92;;;30.55;;
23866;SDS011;12114;53.404;-1.502;2022-12-18T15:51:00;69.93;;;40.20;;
23866;SDS011;12114;53.404;-1.502;2022-12-18T15:53:30;62.38;;;30.45;;
23866;SDS011;12114;53.404;-1.502;2022-12-18T15:55:58;50.40;;;26.27;;
23866;SDS011;12114;53.404;-1.502;2022-12-18T15:58:42;57.22;;;27.95;;
23866;SDS011;12114;53.404;-1.502;2022-12-18T16:01:08;59.03;;;29.23;;
23866;SDS011;12114;53.404;-1.502;2022-12-18T16:03:35;65.63;;;40.85;;
23866;SDS011;12114;53.404;-1.502;2022-12-18T16:06:01;66.80;;;40.28;;
23866;SDS011;12114;53.404;-1.502;2022-12-18T16:08:29;52.72;;;29.30;;
23866;SDS011;12114;53.404;-1.502;2022-12-18T16:10:55;55.35;;;28.02;;
23866;SDS011;12114;53.404;-1.502;2022-12-18T16:13:22;50.35;;;27.02;;
23866;SDS011;12114;53.404;-1.502;2022-12-18T16:15:49;57.45;;;30.45;;
23866;SDS011;12114;53.404;-1.502;2022-12-18T16:18:14;48.58;;;27.20;;
23866;SDS011;12114;53.404;-1.502;2022-12-18T16:20:40;51.42;;;29.42;;
23866;SDS011;12114;53.404;-1.502;2022-12-18T16:23:06;57.88;;;32.53;;
23866;SDS011;12114;53.404;-1.502;2022-12-18T16:25:32;55.05;;;31.23;;
23866;SDS011;12114;53.404;-1.502;2022-12-18T16:27:58;56.13;;;31.17;;
23866;SDS011;12114;53.404;-1.502;2022-12-18T16:30:28;53.83;;;30.33;;
23866;SDS011;12114;53.404;-1.502;2022-12-18T16:32:55;57.17;;;34.30;;
23866;SDS011;12114;53.404;-1.502;2022-12-18T16:35:21;54.33;;;32.00;;
23866;SDS011;12114;53.404;-1.502;2022-12-18T16:37:48;58.75;;;32.30;;
23866;SDS011;12114;53.404;-1.502;2022-12-18T16:40:14;52.60;;;29.13;;
23866;SDS011;12114;53.404;-1.502;2022-12-18T16:42:41;48.65;;;27.83;;
23866;SDS011;12114;53.404;-1.502;2022-12-18T16:45:09;49.63;;;27.23;;
23866;SDS011;12114;53.404;-1.502;2022-12-18T16:47:36;46.03;;;27.05;;
23866;SDS011;12114;53.404;-1.502;2022-12-18T16:50:03;45.70;;;27.13;;
23866;SDS011;12114;53.404;-1.502;2022-12-18T16:52:29;48.03;;;28.73;;
23866;SDS011;12114;53.404;-1.502;2022-12-18T16:54:54;48.55;;;29.08;;
23866;SDS011;12114;53.404;-1.502;2022-12-18T16:57:20;49.22;;;26.65;;